sensor_id;sensor_type;location;lat;lon;timestamp;pressure;altitude;pressure_sealevel;temperature;humidity
49835;BME280;35729;52.090;13.162;2023-05-07T00:01:26;101553.84;;;8.48;91.00
49835;BME280;35729;52.090;13.162;2023-05-07T00:03:55;101559.94;;;8.48;91.06
49835;BME280;35729;52.090;13.162;2023-05-07T00:06:23;101559.94;;;8.48;90.89
49835;BME280;35729;52.090;13.162;2023-05-07T00:08:56;101559.94;;;8.48;90.79
49835;BME280;35729;52.090;13.162;2023-05-07T00:11:26;101564.31;;;8.48;90.84
49835;BME280;35729;52.090;13.162;2023-05-07T00:13:54;101559.06;;;8.48;90.78
49835;BME280;35729;52.090;13.162;2023-05-07T00:16:23;101561.69;;;8.48;90.60
49835;BME280;35729;52.090;13.162;2023-05-07T00:18:52;101570.41;;;8.48;90.57
49835;BME280;35729;52.090;13.162;2023-05-07T00:21:20;101560.78;;;8.49;90.61
49835;BME280;35729;52.090;13.162;2023-05-07T00:23:51;101561.69;;;8.50;90.61
49835;BME280;35729;52.090;13.162;2023-05-07T00:26:22;101562.53;;;8.50;90.33
49835;BME280;35729;52.090;13.162;2023-05-07T00:28:51;101563.41;;;8.49;90.50
49835;BME280;35729;52.090;13.162;2023-05-07T00:31:19;101560.78;;;8.49;90.32
49835;BME280;35729;52.090;13.162;2023-05-07T00:33:48;101559.06;;;8.50;90.36
49835;BME280;35729;52.090;13.162;2023-05-07T00:36:16;101561.69;;;8.50;90.16
49835;BME280;35729;52.090;13.162;2023-05-07T00:38:45;101558.19;;;8.49;90.25
49835;BME280;35729;52.090;13.162;2023-05-07T00:41:22;101556.44;;;8.50;90.29
49835;BME280;35729;52.090;13.162;2023-05-07T00:43:51;101559.06;;;8.48;90.26
49835;BME280;35729;52.090;13.162;2023-05-07T00:46:20;101559.94;;;8.48;90.32
49835;BME280;35729;52.090;13.162;2023-05-07T00:48:49;101556.47;;;8.48;90.16
49835;BME280;35729;52.090;13.162;2023-05-07T00:51:18;101556.47;;;8.48;90.40
49835;BME280;35729;52.090;13.162;2023-05-07T00:53:46;101559.06;;;8.48;90.29
49835;BME280;35729;52.090;13.162;2023-05-07T00:56:15;101559.06;;;8.48;90.26
49835;BME280;35729;52.090;13.162;2023-05-07T00:58:46;101557.31;;;8.48;90.12
49835;BME280;35729;52.090;13.162;2023-05-07T01:01:15;101559.94;;;8.48;90.18
49835;BME280;35729;52.090;13.162;2023-05-07T01:03:44;101564.31;;;8.48;90.32
49835;BME280;35729;52.090;13.162;2023-05-07T01:06:13;101560.78;;;8.49;90.47
49835;BME280;35729;52.090;13.162;2023-05-07T01:08:42;101556.47;;;8.48;90.27
49835;BME280;35729;52.090;13.162;2023-05-07T01:11:11;101549.47;;;8.47;90.43
49835;BME280;35729;52.090;13.162;2023-05-07T01:13:40;101552.97;;;8.46;90.52
49835;BME280;35729;52.090;13.162;2023-05-07T01:16:12;101557.31;;;8.45;90.54
49835;BME280;35729;52.090;13.162;2023-05-07T01:18:40;101550.31;;;8.43;90.66
49835;BME280;35729;52.090;13.162;2023-05-07T01:21:11;101551.19;;;8.42;90.89
49835;BME280;35729;52.090;13.162;2023-05-07T01:23:42;101557.28;;;8.42;90.91
49835;BME280;35729;52.090;13.162;2023-05-07T01:26:12;101559.03;;;8.42;90.84
49835;BME280;35729;52.090;13.162;2023-05-07T01:28:40;101553.78;;;8.40;90.98
49835;BME280;35729;52.090;13.162;2023-05-07T01:31:09;101559.03;;;8.39;91.16
49835;BME280;35729;52.090;13.162;2023-05-07T01:33:38;101553.78;;;8.39;91.10
49835;BME280;35729;52.090;13.162;2023-05-07T01:36:09;101548.56;;;8.37;91.04
49835;BME280;35729;52.090;13.162;2023-05-07T01:38:41;101555.56;;;8.37;91.26
49835;BME280;35729;52.090;13.162;2023-05-07T01:41:11;101552.03;;;8.36;91.27
49835;BME280;35729;52.090;13.162;2023-05-07T01:43:41;101542.47;;;8.34;91.18
49835;BME280;35729;52.090;13.162;2023-05-07T01:46:10;101553.81;;;8.36;91.27
49835;BME280;35729;52.090;13.162;2023-05-07T01:48:39;101555.53;;;8.35;91.19
49835;BME280;35729;52.090;13.162;2023-05-07T01:51:11;101551.19;;;8.36;91.35
49835;BME280;35729;52.090;13.162;2023-05-07T01:53:42;101546.81;;;8.36;91.19
49835;BME280;35729;52.090;13.162;2023-05-07T01:56:16;101547.69;;;8.35;91.23
49835;BME280;35729;52.090;13.162;2023-05-07T01:58:44;101546.84;;;8.33;91.11
49835;BME280;35729;52.090;13.162;2023-05-07T02:01:13;101552.91;;;8.35;91.07
49835;BME280;35729;52.090;13.162;2023-05-07T02:03:42;101555.53;;;8.34;91.11
49835;BME280;35729;52.090;13.162;2023-05-07T02:06:10;101559.03;;;8.36;91.18
49835;BME280;35729;52.090;13.162;2023-05-07T02:08:41;101549.44;;;8.35;91.22
49835;BME280;35729;52.090;13.162;2023-05-07T02:11:10;101557.28;;;8.35;91.04
49835;BME280;35729;52.090;13.162;2023-05-07T02:13:38;101562.50;;;8.35;91.14
49835;BME280;35729;52.090;13.162;2023-05-07T02:16:07;101560.75;;;8.34;91.01
49835;BME280;35729;52.090;13.162;2023-05-07T02:18:36;101559.00;;;8.32;90.99
49835;BME280;35729;52.090;13.162;2023-05-07T02:21:04;101558.16;;;8.30;91.02
49835;BME280;35729;52.090;13.162;2023-05-07T02:23:33;101565.13;;;8.30;90.90
49835;BME280;35729;52.090;13.162;2023-05-07T02:26:04;101568.63;;;8.30;90.99
49835;BME280;35729;52.090;13.162;2023-05-07T02:28:32;101572.97;;;8.30;90.96
49835;BME280;35729;52.090;13.162;2023-05-07T02:31:02;101574.72;;;8.31;90.82
49835;BME280;35729;52.090;13.162;2023-05-07T02:33:31;101573.84;;;8.30;90.97
49835;BME280;35729;52.090;13.162;2023-05-07T02:36:05;101574.72;;;8.29;90.76
49835;BME280;35729;52.090;13.162;2023-05-07T02:38:34;101578.19;;;8.30;90.77
49835;BME280;35729;52.090;13.162;2023-05-07T02:41:05;101574.72;;;8.29;90.72
49835;BME280;35729;52.090;13.162;2023-05-07T02:43:33;101574.72;;;8.29;90.87
49835;BME280;35729;52.090;13.162;2023-05-07T02:46:03;101558.13;;;8.21;90.84
49835;BME280;35729;52.090;13.162;2023-05-07T02:48:31;101573.84;;;8.30;90.66
49835;BME280;35729;52.090;13.162;2023-05-07T02:51:01;101579.06;;;8.32;90.65
49835;BME280;35729;52.090;13.162;2023-05-07T02:53:29;101579.06;;;8.32;90.62
49835;BME280;35729;52.090;13.162;2023-05-07T02:55:59;101574.69;;;8.32;90.68
49835;BME280;35729;52.090;13.162;2023-05-07T02:58:30;101570.38;;;8.31;90.58
49835;BME280;35729;52.090;13.162;2023-05-07T03:00:58;101572.97;;;8.31;90.55
49835;BME280;35729;52.090;13.162;2023-05-07T03:03:27;101573.84;;;8.32;90.46
49835;BME280;35729;52.090;13.162;2023-05-07T03:05:55;101571.22;;;8.30;90.41
49835;BME280;35729;52.090;13.162;2023-05-07T03:08:24;101571.22;;;8.30;90.45
49835;BME280;35729;52.090;13.162;2023-05-07T03:10:52;101574.72;;;8.29;90.57
49835;BME280;35729;52.090;13.162;2023-05-07T03:13:21;101566.88;;;8.28;90.42
49835;BME280;35729;52.090;13.162;2023-05-07T03:15:52;101577.34;;;8.28;90.49
49835;BME280;35729;52.090;13.162;2023-05-07T03:18:20;101579.06;;;8.27;90.54
49835;BME280;35729;52.090;13.162;2023-05-07T03:20:49;101584.28;;;8.27;90.30
49835;BME280;35729;52.090;13.162;2023-05-07T03:23:17;101588.66;;;8.27;90.39
49835;BME280;35729;52.090;13.162;2023-05-07T03:25:46;101575.59;;;8.25;90.42
49835;BME280;35729;52.090;13.162;2023-05-07T03:28:14;101589.50;;;8.27;90.39
49835;BME280;35729;52.090;13.162;2023-05-07T03:30:43;101597.38;;;8.26;90.50
49835;BME280;35729;52.090;13.162;2023-05-07T03:33:14;101591.28;;;8.27;90.41
49835;BME280;35729;52.090;13.162;2023-05-07T03:35:42;101598.22;;;8.26;90.32
49835;BME280;35729;52.090;13.162;2023-05-07T03:38:11;101594.75;;;8.26;90.32
49835;BME280;35729;52.090;13.162;2023-05-07T03:40:39;101598.22;;;8.26;90.19
49835;BME280;35729;52.090;13.162;2023-05-07T03:43:08;101598.22;;;8.26;90.43
49835;BME280;35729;52.090;13.162;2023-05-07T03:45:36;101606.06;;;8.26;90.23
49835;BME280;35729;52.090;13.162;2023-05-07T03:48:05;101599.97;;;8.26;90.16
49835;BME280;35729;52.090;13.162;2023-05-07T03:50:36;101614.81;;;8.27;90.32
49835;BME280;35729;52.090;13.162;2023-05-07T03:53:04;101606.94;;;8.27;90.06
49835;BME280;35729;52.090;13.162;2023-05-07T03:55:33;101606.94;;;8.27;90.23
49835;BME280;35729;52.090;13.162;2023-05-07T03:58:01;101606.94;;;8.27;90.09
49835;BME280;35729;52.090;13.162;2023-05-07T04:00:30;101613.03;;;8.26;89.89
49835;BME280;35729;52.090;13.162;2023-05-07T04:03:03;101609.56;;;8.28;90.13
49835;BME280;35729;52.090;13.162;2023-05-07T04:05:32;101620.03;;;8.28;89.98
49835;BME280;35729;52.090;13.162;2023-05-07T04:08:03;101613.03;;;8.27;89.93
49835;BME280;35729;52.090;13.162;2023-05-07T04:10:32;101610.44;;;8.27;90.00
49835;BME280;35729;52.090;13.162;2023-05-07T04:13:00;101621.75;;;8.26;89.86
49835;BME280;35729;52.090;13.162;2023-05-07T04:15:35;101614.78;;;8.24;89.87
49835;BME280;35729;52.090;13.162;2023-05-07T04:18:04;101626.97;;;8.26;89.70
49835;BME280;35729;52.090;13.162;2023-05-07T04:20:34;101631.34;;;8.26;89.66
49835;BME280;35729;52.090;13.162;2023-05-07T04:23:06;101621.75;;;8.26;89.53
49835;BME280;35729;52.090;13.162;2023-05-07T04:25:35;101626.97;;;8.26;89.54
49835;BME280;35729;52.090;13.162;2023-05-07T04:28:04;101628.72;;;8.27;89.38
49835;BME280;35729;52.090;13.162;2023-05-07T04:30:32;101624.41;;;8.28;89.15
49835;BME280;35729;52.090;13.162;2023-05-07T04:33:01;101643.56;;;8.28;88.68
49835;BME280;35729;52.090;13.162;2023-05-07T04:35:29;101650.53;;;8.28;88.73
49835;BME280;35729;52.090;13.162;2023-05-07T04:37:58;101650.50;;;8.26;88.72
49835;BME280;35729;52.090;13.162;2023-05-07T04:40:29;101651.41;;;8.28;88.38
49835;BME280;35729;52.090;13.162;2023-05-07T04:42:58;101656.63;;;8.28;88.30
49835;BME280;35729;52.090;13.162;2023-05-07T04:45:26;101660.09;;;8.27;88.20
49835;BME280;35729;52.090;13.162;2023-05-07T04:47:55;101665.31;;;8.29;87.93
49835;BME280;35729;52.090;13.162;2023-05-07T04:50:24;101674.06;;;8.28;87.49
49835;BME280;35729;52.090;13.162;2023-05-07T04:52:52;101678.41;;;8.29;87.73
49835;BME280;35729;52.090;13.162;2023-05-07T04:55:21;101674.06;;;8.29;87.49
49835;BME280;35729;52.090;13.162;2023-05-07T04:57:52;101673.19;;;8.32;87.47
49835;BME280;35729;52.090;13.162;2023-05-07T05:00:21;101672.34;;;8.35;87.34
49835;BME280;35729;52.090;13.162;2023-05-07T05:02:50;101674.94;;;8.36;87.23
49835;BME280;35729;52.090;13.162;2023-05-07T05:05:19;101677.56;;;8.38;87.03
49835;BME280;35729;52.090;13.162;2023-05-07T05:07:48;101675.81;;;8.40;86.96
49835;BME280;35729;52.090;13.162;2023-05-07T05:10:17;101678.44;;;8.40;86.78
49835;BME280;35729;52.090;13.162;2023-05-07T05:12:45;101676.69;;;8.40;86.55
49835;BME280;35729;52.090;13.162;2023-05-07T05:15:17;101676.72;;;8.42;86.54
49835;BME280;35729;52.090;13.162;2023-05-07T05:17:45;101672.34;;;8.41;86.39
49835;BME280;35729;52.090;13.162;2023-05-07T05:20:14;101673.22;;;8.43;86.35
49835;BME280;35729;52.090;13.162;2023-05-07T05:22:42;101681.09;;;8.43;86.37
49835;BME280;35729;52.090;13.162;2023-05-07T05:25:11;101675.81;;;8.41;86.26
49835;BME280;35729;52.090;13.162;2023-05-07T05:27:39;101682.81;;;8.42;86.20
49835;BME280;35729;52.090;13.162;2023-05-07T05:30:09;101680.19;;;8.42;86.30
49835;BME280;35729;52.090;13.162;2023-05-07T05:32:40;101682.81;;;8.44;86.53
49835;BME280;35729;52.090;13.162;2023-05-07T05:35:09;101679.31;;;8.43;86.40
49835;BME280;35729;52.090;13.162;2023-05-07T05:37:37;101681.06;;;8.44;86.35
49835;BME280;35729;52.090;13.162;2023-05-07T05:40:07;101681.09;;;8.46;86.43
49835;BME280;35729;52.090;13.162;2023-05-07T05:42:36;101684.59;;;8.48;86.50
49835;BME280;35729;52.090;13.162;2023-05-07T05:45:05;101683.72;;;8.47;86.25
49835;BME280;35729;52.090;13.162;2023-05-07T05:47:34;101680.22;;;8.45;86.28
49835;BME280;35729;52.090;13.162;2023-05-07T05:50:06;101685.41;;;8.44;86.37
49835;BME280;35729;52.090;13.162;2023-05-07T05:52:35;101688.91;;;8.44;86.33
49835;BME280;35729;52.090;13.162;2023-05-07T05:55:04;101690.69;;;8.45;86.12
49835;BME280;35729;52.090;13.162;2023-05-07T05:57:33;101692.41;;;8.45;85.99
49835;BME280;35729;52.090;13.162;2023-05-07T06:00:02;101686.34;;;8.46;85.90
49835;BME280;35729;52.090;13.162;2023-05-07T06:02:30;101695.94;;;8.48;85.71
49835;BME280;35729;52.090;13.162;2023-05-07T06:04:59;101688.94;;;8.49;85.44
49835;BME280;35729;52.090;13.162;2023-05-07T06:07:30;101692.44;;;8.51;85.41
49835;BME280;35729;52.090;13.162;2023-05-07T06:10:00;101700.28;;;8.54;85.45
49835;BME280;35729;52.090;13.162;2023-05-07T06:12:28;101712.53;;;8.58;85.18
49835;BME280;35729;52.090;13.162;2023-05-07T06:14:57;101712.50;;;8.61;84.96
49835;BME280;35729;52.090;13.162;2023-05-07T06:17:25;101708.19;;;8.62;84.80
49835;BME280;35729;52.090;13.162;2023-05-07T06:19:54;101710.78;;;8.63;84.63
49835;BME280;35729;52.090;13.162;2023-05-07T06:22:22;101709.06;;;8.67;84.73
49835;BME280;35729;52.090;13.162;2023-05-07T06:24:53;101715.16;;;8.72;84.38
49835;BME280;35729;52.090;13.162;2023-05-07T06:27:22;101708.16;;;8.74;84.25
49835;BME280;35729;52.090;13.162;2023-05-07T06:29:50;101709.06;;;8.78;84.26
49835;BME280;35729;52.090;13.162;2023-05-07T06:32:19;101703.81;;;8.79;84.21
49835;BME280;35729;52.090;13.162;2023-05-07T06:34:47;101703.84;;;8.81;83.81
49835;BME280;35729;52.090;13.162;2023-05-07T06:37:38;101698.59;;;8.86;84.00
49835;BME280;35729;52.090;13.162;2023-05-07T06:40:15;101701.22;;;8.89;83.86
49835;BME280;35729;52.090;13.162;2023-05-07T06:42:44;101700.34;;;8.94;83.85
49835;BME280;35729;52.090;13.162;2023-05-07T06:45:13;101705.59;;;9.01;83.77
49835;BME280;35729;52.090;13.162;2023-05-07T06:47:41;101702.97;;;9.07;83.57
49835;BME280;35729;52.090;13.162;2023-05-07T06:50:10;101697.75;;;9.11;83.43
49835;BME280;35729;52.090;13.162;2023-05-07T06:52:41;101699.47;;;9.20;83.13
49835;BME280;35729;52.090;13.162;2023-05-07T06:55:09;101702.97;;;9.25;82.65
49835;BME280;35729;52.090;13.162;2023-05-07T06:57:41;101704.69;;;9.31;82.55
49835;BME280;35729;52.090;13.162;2023-05-07T07:00:11;101696.81;;;9.37;82.34
49835;BME280;35729;52.090;13.162;2023-05-07T07:02:39;101704.69;;;9.43;81.94
49835;BME280;35729;52.090;13.162;2023-05-07T07:05:09;101707.28;;;9.51;81.60
49835;BME280;35729;52.090;13.162;2023-05-07T07:07:37;101711.66;;;9.57;81.41
49835;BME280;35729;52.090;13.162;2023-05-07T07:10:07;101719.50;;;9.63;80.58
49835;BME280;35729;52.090;13.162;2023-05-07T07:12:36;101722.13;;;9.65;80.14
49835;BME280;35729;52.090;13.162;2023-05-07T07:15:14;101729.97;;;9.66;79.44
49835;BME280;35729;52.090;13.162;2023-05-07T07:17:42;101732.59;;;9.69;79.83
49835;BME280;35729;52.090;13.162;2023-05-07T07:20:11;101731.72;;;9.72;79.55
49835;BME280;35729;52.090;13.162;2023-05-07T07:22:40;101734.31;;;9.75;79.08
49835;BME280;35729;52.090;13.162;2023-05-07T07:25:09;101725.56;;;9.79;79.15
49835;BME280;35729;52.090;13.162;2023-05-07T07:27:37;101725.53;;;9.87;79.14
49835;BME280;35729;52.090;13.162;2023-05-07T07:30:07;101736.03;;;9.94;79.08
49835;BME280;35729;52.090;13.162;2023-05-07T07:32:38;101738.59;;;10.04;78.83
49835;BME280;35729;52.090;13.162;2023-05-07T07:35:08;101742.94;;;10.14;78.66
49835;BME280;35729;52.090;13.162;2023-05-07T07:37:37;101736.78;;;10.21;78.27
49835;BME280;35729;52.090;13.162;2023-05-07T07:40:06;101737.63;;;10.26;77.85
49835;BME280;35729;52.090;13.162;2023-05-07T07:42:35;101743.75;;;10.30;77.53
49835;BME280;35729;52.090;13.162;2023-05-07T07:45:05;101737.63;;;10.33;77.02
49835;BME280;35729;52.090;13.162;2023-05-07T07:47:34;101750.72;;;10.36;76.95
49835;BME280;35729;52.090;13.162;2023-05-07T07:50:06;101751.59;;;10.38;76.70
49835;BME280;35729;52.090;13.162;2023-05-07T07:52:35;101748.09;;;10.40;76.36
49835;BME280;35729;52.090;13.162;2023-05-07T07:55:05;101748.09;;;10.40;76.54
49835;BME280;35729;52.090;13.162;2023-05-07T07:57:33;101754.19;;;10.50;76.60
49835;BME280;35729;52.090;13.162;2023-05-07T08:00:02;101757.63;;;10.58;75.96
49835;BME280;35729;52.090;13.162;2023-05-07T08:02:32;101750.59;;;10.67;75.59
49835;BME280;35729;52.090;13.162;2023-05-07T08:05:01;101747.91;;;10.74;75.24
49835;BME280;35729;52.090;13.162;2023-05-07T08:07:32;101742.63;;;10.81;74.84
49835;BME280;35729;52.090;13.162;2023-05-07T08:10:00;101746.94;;;10.89;74.82
49835;BME280;35729;52.090;13.162;2023-05-07T08:12:29;101744.25;;;10.97;74.36
49835;BME280;35729;52.090;13.162;2023-05-07T08:14:58;101731.91;;;11.05;74.25
49835;BME280;35729;52.090;13.162;2023-05-07T08:17:26;101736.22;;;11.14;73.87
49835;BME280;35729;52.090;13.162;2023-05-07T08:19:55;101740.53;;;11.26;73.60
49835;BME280;35729;52.090;13.162;2023-05-07T08:22:23;101743.03;;;11.37;72.93
49835;BME280;35729;52.090;13.162;2023-05-07T08:24:54;101739.47;;;11.44;72.41
49835;BME280;35729;52.090;13.162;2023-05-07T08:27:23;101742.03;;;11.52;71.93
49835;BME280;35729;52.090;13.162;2023-05-07T08:29:51;101742.88;;;11.55;71.81
49835;BME280;35729;52.090;13.162;2023-05-07T08:32:20;101748.06;;;11.63;71.60
49835;BME280;35729;52.090;13.162;2023-05-07T08:34:49;101748.00;;;11.66;71.37
49835;BME280;35729;52.090;13.162;2023-05-07T08:37:17;101748.84;;;11.73;70.73
49835;BME280;35729;52.090;13.162;2023-05-07T08:39:46;101747.91;;;11.77;70.72
49835;BME280;35729;52.090;13.162;2023-05-07T08:42:17;101744.38;;;11.83;70.50
49835;BME280;35729;52.090;13.162;2023-05-07T08:44:46;101745.16;;;11.89;70.39
49835;BME280;35729;52.090;13.162;2023-05-07T08:47:15;101746.81;;;11.95;70.07
49835;BME280;35729;52.090;13.162;2023-05-07T08:49:44;101740.69;;;11.98;69.71
49835;BME280;35729;52.090;13.162;2023-05-07T08:52:13;101755.63;;;11.97;68.81
49835;BME280;35729;52.090;13.162;2023-05-07T08:54:42;101752.09;;;11.95;68.81
49835;BME280;35729;52.090;13.162;2023-05-07T08:57:11;101761.78;;;11.93;68.83
49835;BME280;35729;52.090;13.162;2023-05-07T08:59:42;101768.75;;;11.94;69.01
49835;BME280;35729;52.090;13.162;2023-05-07T09:02:11;101775.75;;;11.95;69.26
49835;BME280;35729;52.090;13.162;2023-05-07T09:04:40;101782.78;;;11.98;69.18
49835;BME280;35729;52.090;13.162;2023-05-07T09:07:09;101776.59;;;12.00;68.94
49835;BME280;35729;52.090;13.162;2023-05-07T09:09:37;101779.25;;;12.02;68.71
49835;BME280;35729;52.090;13.162;2023-05-07T09:12:06;101783.66;;;11.98;68.68
49835;BME280;35729;52.090;13.162;2023-05-07T09:14:35;101781.94;;;11.96;68.80
49835;BME280;35729;52.090;13.162;2023-05-07T09:17:06;101785.44;;;11.93;68.63
49835;BME280;35729;52.090;13.162;2023-05-07T09:19:35;101790.69;;;11.92;69.10
49835;BME280;35729;52.090;13.162;2023-05-07T09:22:05;101788.97;;;11.90;69.04
49835;BME280;35729;52.090;13.162;2023-05-07T09:24:34;101796.88;;;11.87;68.79
49835;BME280;35729;52.090;13.162;2023-05-07T09:27:03;101794.34;;;11.80;68.59
49835;BME280;35729;52.090;13.162;2023-05-07T09:29:32;101797.81;;;11.82;69.01
49835;BME280;35729;52.090;13.162;2023-05-07T09:32:01;101797.75;;;11.89;68.84
49835;BME280;35729;52.090;13.162;2023-05-07T09:34:33;101807.34;;;11.97;67.83
49835;BME280;35729;52.090;13.162;2023-05-07T09:37:03;101797.66;;;11.99;67.92
49835;BME280;35729;52.090;13.162;2023-05-07T09:39:39;101801.22;;;11.93;67.47
49835;BME280;35729;52.090;13.162;2023-05-07T09:42:08;101811.75;;;11.90;68.17
49835;BME280;35729;52.090;13.162;2023-05-07T09:44:37;101811.75;;;11.93;68.19
49835;BME280;35729;52.090;13.162;2023-05-07T09:47:06;101811.69;;;11.98;67.84
49835;BME280;35729;52.090;13.162;2023-05-07T09:49:39;101811.69;;;12.01;67.43
49835;BME280;35729;52.090;13.162;2023-05-07T09:52:07;101801.19;;;11.99;67.52
49835;BME280;35729;52.090;13.162;2023-05-07T09:54:36;101803.75;;;12.04;67.39
49835;BME280;35729;52.090;13.162;2023-05-07T09:57:07;101801.16;;;12.02;67.31
49835;BME280;35729;52.090;13.162;2023-05-07T09:59:38;101807.25;;;12.03;67.42
49835;BME280;35729;52.090;13.162;2023-05-07T10:02:07;101800.25;;;12.05;67.41
49835;BME280;35729;52.090;13.162;2023-05-07T10:04:40;101799.31;;;12.11;67.43
49835;BME280;35729;52.090;13.162;2023-05-07T10:07:09;101796.66;;;12.12;67.49
49835;BME280;35729;52.090;13.162;2023-05-07T10:09:38;101799.19;;;12.21;67.18
49835;BME280;35729;52.090;13.162;2023-05-07T10:12:09;101805.31;;;12.22;67.04
49835;BME280;35729;52.090;13.162;2023-05-07T10:14:38;101803.50;;;12.26;67.04
49835;BME280;35729;52.090;13.162;2023-05-07T10:17:07;101801.69;;;12.31;66.81
49835;BME280;35729;52.090;13.162;2023-05-07T10:19:40;101815.72;;;12.33;66.41
49835;BME280;35729;52.090;13.162;2023-05-07T10:22:09;101808.66;;;12.36;66.52
49835;BME280;35729;52.090;13.162;2023-05-07T10:24:38;101811.25;;;12.41;66.51
49835;BME280;35729;52.090;13.162;2023-05-07T10:27:09;101811.16;;;12.46;66.21
49835;BME280;35729;52.090;13.162;2023-05-07T10:29:48;101810.16;;;12.54;66.14
49835;BME280;35729;52.090;13.162;2023-05-07T10:32:37;101811.78;;;12.66;65.99
49835;BME280;35729;52.090;13.162;2023-05-07T10:35:14;101822.25;;;12.71;65.40
49835;BME280;35729;52.090;13.162;2023-05-07T10:37:44;101812.56;;;12.73;65.42
49835;BME280;35729;52.090;13.162;2023-05-07T10:40:13;101817.81;;;12.75;65.66
49835;BME280;35729;52.090;13.162;2023-05-07T10:42:58;101804.66;;;12.73;65.32
49835;BME280;35729;52.090;13.162;2023-05-07T10:45:27;101811.63;;;12.77;65.62
49835;BME280;35729;52.090;13.162;2023-05-07T10:48:06;101806.25;;;12.86;65.41
49835;BME280;35729;52.090;13.162;2023-05-07T10:50:38;101792.06;;;12.97;65.07
49835;BME280;35729;52.090;13.162;2023-05-07T10:53:23;101802.44;;;13.06;63.59
49835;BME280;35729;52.090;13.162;2023-05-07T10:56:25;101798.81;;;13.13;63.44
49835;BME280;35729;52.090;13.162;2023-05-07T10:58:55;101798.72;;;13.19;64.07
49835;BME280;35729;52.090;13.162;2023-05-07T11:01:52;101803.06;;;13.24;62.37
49835;BME280;35729;52.090;13.162;2023-05-07T11:04:21;101799.44;;;13.29;63.79
49835;BME280;35729;52.090;13.162;2023-05-07T11:07:20;101796.72;;;13.37;61.51
49835;BME280;35729;52.090;13.162;2023-05-07T11:09:56;101785.16;;;13.46;62.00
49835;BME280;35729;52.090;13.162;2023-05-07T11:12:51;101779.59;;;13.61;61.74
49835;BME280;35729;52.090;13.162;2023-05-07T11:15:43;101782.09;;;13.69;61.61
49835;BME280;35729;52.090;13.162;2023-05-07T11:18:46;101783.78;;;13.73;61.09
49835;BME280;35729;52.090;13.162;2023-05-07T11:21:31;101774.78;;;13.85;59.92
49835;BME280;35729;52.090;13.162;2023-05-07T11:24:04;101772.81;;;13.95;60.72
49835;BME280;35729;52.090;13.162;2023-05-07T11:26:46;101774.38;;;14.05;60.55
49835;BME280;35729;52.090;13.162;2023-05-07T11:29:17;101776.94;;;14.10;60.49
49835;BME280;35729;52.090;13.162;2023-05-07T11:31:49;101772.53;;;14.10;60.41
49835;BME280;35729;52.090;13.162;2023-05-07T11:34:21;101769.75;;;14.16;59.94
49835;BME280;35729;52.090;13.162;2023-05-07T11:36:51;101759.19;;;14.16;60.16
49835;BME280;35729;52.090;13.162;2023-05-07T11:39:27;101768.59;;;14.30;59.98
49835;BME280;35729;52.090;13.162;2023-05-07T11:41:55;101771.84;;;14.43;59.87
49835;BME280;35729;52.090;13.162;2023-05-07T11:44:24;101775.97;;;14.56;59.43
49835;BME280;35729;52.090;13.162;2023-05-07T11:46:53;101764.25;;;14.70;58.53
49835;BME280;35729;52.090;13.162;2023-05-07T11:49:25;101776.41;;;14.77;57.94
49835;BME280;35729;52.090;13.162;2023-05-07T11:51:55;101782.50;;;14.80;58.09
49835;BME280;35729;52.090;13.162;2023-05-07T11:54:34;101783.41;;;14.79;56.62
49835;BME280;35729;52.090;13.162;2023-05-07T11:57:03;101784.28;;;14.80;57.39
49835;BME280;35729;52.090;13.162;2023-05-07T11:59:38;101778.13;;;14.79;56.92
49835;BME280;35729;52.090;13.162;2023-05-07T12:02:08;101775.44;;;14.82;57.10
49835;BME280;35729;52.090;13.162;2023-05-07T12:04:38;101781.53;;;14.85;57.13
49835;BME280;35729;52.090;13.162;2023-05-07T12:07:11;101775.31;;;14.87;56.51
49835;BME280;35729;52.090;13.162;2023-05-07T12:09:43;101781.34;;;14.92;56.59
49835;BME280;35729;52.090;13.162;2023-05-07T12:12:13;101775.03;;;14.99;56.49
49835;BME280;35729;52.090;13.162;2023-05-07T12:14:44;101783.78;;;15.02;56.23
49835;BME280;35729;52.090;13.162;2023-05-07T12:17:14;101781.84;;;15.08;56.08
49835;BME280;35729;52.090;13.162;2023-05-07T12:19:43;101781.75;;;15.13;55.63
49835;BME280;35729;52.090;13.162;2023-05-07T12:22:13;101787.91;;;15.13;55.22
49835;BME280;35729;52.090;13.162;2023-05-07T12:24:49;101784.31;;;15.16;54.47
49835;BME280;35729;52.090;13.162;2023-05-07T12:27:17;101791.28;;;15.19;55.27
49835;BME280;35729;52.090;13.162;2023-05-07T12:29:46;101784.28;;;15.18;55.03
49835;BME280;35729;52.090;13.162;2023-05-07T12:32:16;101778.13;;;15.17;55.13
49835;BME280;35729;52.090;13.162;2023-05-07T12:34:45;101786.84;;;15.21;55.23
49835;BME280;35729;52.090;13.162;2023-05-07T12:37:14;101791.00;;;15.31;54.86
49835;BME280;35729;52.090;13.162;2023-05-07T12:40:03;101787.22;;;15.41;54.76
49835;BME280;35729;52.090;13.162;2023-05-07T12:42:33;101786.16;;;15.48;54.66
49835;BME280;35729;52.090;13.162;2023-05-07T12:45:10;101781.66;;;15.52;53.52
49835;BME280;35729;52.090;13.162;2023-05-07T12:47:39;101771.16;;;15.49;54.55
49835;BME280;35729;52.090;13.162;2023-05-07T12:50:14;101780.03;;;15.46;54.51
49835;BME280;35729;52.090;13.162;2023-05-07T12:52:44;101780.06;;;15.45;54.45
49835;BME280;35729;52.090;13.162;2023-05-07T12:55:15;101777.38;;;15.46;54.15
49835;BME280;35729;52.090;13.162;2023-05-07T12:57:47;101779.06;;;15.51;54.19
49835;BME280;35729;52.090;13.162;2023-05-07T13:00:17;101769.38;;;15.50;53.90
49835;BME280;35729;52.090;13.162;2023-05-07T13:02:45;101785.00;;;15.59;53.57